Time;durP1;ratioP1;P1;durP2;ratioP2;P2;SDS_P1;SDS_P2;PMS_P1;PMS_P2;Temp;Humidity;BMP_temperature;BMP_pressure;BME280_temperature;BME280_humidity;BME280_pressure;Samples;Min_cycle;Max_cycle;Signal;HPM_P1;HPM_P2
2021/05/08 00:00:45;;;;;;;19.48;11.73;;;11.60;99.90;;;;;;5005304;28;20037;-89
2021/05/08 00:03:11;;;;;;;12.80;10.85;;;11.60;99.90;;;;;;4997656;28;20069;-89
2021/05/08 00:05:36;;;;;;;12.05;9.57;;;11.60;99.90;;;;;;4998121;28;20411;-90
2021/05/08 00:08:03;;;;;;;13.10;11.25;;;11.60;99.90;;;;;;5012500;28;20129;-90
2021/05/08 00:10:28;;;;;;;13.80;10.52;;;11.60;99.90;;;;;;4996036;28;20026;-90
2021/05/08 00:12:54;;;;;;;14.93;11.50;;;11.60;99.90;;;;;;5013341;28;20068;-88
2021/05/08 00:15:20;;;;;;;14.98;10.63;;;11.60;99.90;;;;;;4995491;28;20026;-90
2021/05/08 00:17:46;;;;;;;16.60;10.18;;;11.60;99.90;;;;;;4995734;28;20498;-89
2021/05/08 00:20:14;;;;;;;12.60;9.43;;;11.60;99.90;;;;;;4995814;28;20032;-89
2021/05/08 00:22:40;;;;;;;14.27;10.85;;;11.60;99.90;;;;;;4997010;28;20495;-90
2021/05/08 00:25:07;;;;;;;15.55;11.20;;;11.60;99.90;;;;;;5009236;28;20025;-88
2021/05/08 00:27:33;;;;;;;17.45;10.85;;;11.60;99.90;;;;;;5013614;28;20553;-89
2021/05/08 00:29:59;;;;;;;16.33;11.00;;;11.60;99.90;;;;;;5012111;28;20029;-89
2021/05/08 00:32:25;;;;;;;15.45;11.60;;;11.60;99.90;;;;;;5013372;28;20070;-88
2021/05/08 00:34:51;;;;;;;12.48;10.60;;;11.60;99.90;;;;;;4995543;28;20033;-90
2021/05/08 00:37:17;;;;;;;11.07;9.93;;;11.60;99.90;;;;;;4995738;28;20064;-89
2021/05/08 00:39:43;;;;;;;13.20;10.13;;;11.60;99.90;;;;;;4995977;28;20061;-88
2021/05/08 00:42:09;;;;;;;13.80;10.82;;;11.50;99.90;;;;;;5003315;28;20088;-89
2021/05/08 00:44:34;;;;;;;13.10;11.07;;;11.50;99.90;;;;;;4995619;28;20018;-90
2021/05/08 00:47:00;;;;;;;15.07;11.48;;;11.50;99.90;;;;;;4995829;28;20040;-89
2021/05/08 00:49:28;;;;;;;14.05;10.57;;;11.60;99.90;;;;;;4996033;28;20425;-90
2021/05/08 00:51:54;;;;;;;16.38;12.18;;;11.60;99.90;;;;;;4995905;28;20494;-89
2021/05/08 00:54:20;;;;;;;15.18;11.88;;;11.60;99.90;;;;;;4996245;28;20026;-90
2021/05/08 00:56:47;;;;;;;17.02;11.20;;;11.70;99.90;;;;;;4995912;28;20422;-89
2021/05/08 00:59:13;;;;;;;13.77;11.57;;;11.70;99.90;;;;;;4995591;28;20018;-90
2021/05/08 01:01:40;;;;;;;14.52;11.15;;;11.70;99.90;;;;;;4995891;28;20029;-90
2021/05/08 01:04:06;;;;;;;15.27;11.98;;;11.70;99.90;;;;;;4995817;28;20061;-90
2021/05/08 01:06:33;;;;;;;15.88;11.77;;;11.70;99.90;;;;;;4997045;28;20441;-89
2021/05/08 01:08:59;;;;;;;15.57;11.80;;;11.70;99.90;;;;;;4995564;28;20434;-89
2021/05/08 01:11:25;;;;;;;12.68;10.82;;;11.70;99.90;;;;;;4995548;28;20052;-90
2021/05/08 01:13:51;;;;;;;16.20;11.27;;;11.70;99.90;;;;;;4995545;28;20037;-90
2021/05/08 01:16:17;;;;;;;13.57;10.98;;;11.70;99.90;;;;;;4995477;28;20026;-90
2021/05/08 01:18:43;;;;;;;12.88;11.05;;;11.70;99.90;;;;;;4995974;28;20475;-90
2021/05/08 01:21:14;;;;;;;13.95;10.25;;;11.70;99.90;;;;;;4995404;28;20030;-90
2021/05/08 01:23:54;;;;;;;11.88;10.27;;;11.70;99.90;;;;;;5011860;28;20042;-90
2021/05/08 01:26:19;;;;;;;11.27;9.80;;;11.80;99.90;;;;;;4996803;28;20125;-90
2021/05/08 01:28:46;;;;;;;13.23;10.55;;;11.80;99.90;;;;;;5016883;28;20448;-90
2021/05/08 01:31:12;;;;;;;17.23;11.05;;;11.80;99.90;;;;;;4998695;28;20030;-90
2021/05/08 01:33:39;;;;;;;13.18;10.95;;;11.80;99.90;;;;;;4998770;28;20479;-89
2021/05/08 01:36:05;;;;;;;12.18;10.30;;;11.80;99.90;;;;;;4993642;28;20456;-89
2021/05/08 01:38:32;;;;;;;12.35;10.98;;;11.80;99.90;;;;;;4979621;28;20058;-90
2021/05/08 01:41:05;;;;;;;14.85;10.73;;;11.90;99.90;;;;;;4979321;28;20025;-90
2021/05/08 01:43:30;;;;;;;12.15;10.63;;;11.90;99.90;;;;;;4997401;28;20053;-90
2021/05/08 01:45:56;;;;;;;13.25;10.68;;;11.90;99.90;;;;;;5021797;28;20022;-90
2021/05/08 01:48:22;;;;;;;14.27;10.70;;;11.90;99.90;;;;;;5001372;28;20042;-89
2021/05/08 01:50:48;;;;;;;19.42;12.15;;;11.90;99.90;;;;;;4980199;28;20072;-90
2021/05/08 01:53:14;;;;;;;16.30;11.70;;;11.80;99.90;;;;;;4995073;28;20030;-90
2021/05/08 01:55:40;;;;;;;22.48;14.73;;;11.90;99.90;;;;;;4993111;28;20028;-90
2021/05/08 01:58:06;;;;;;;30.58;16.23;;;11.90;99.90;;;;;;4994060;28;20042;-89
2021/05/08 02:00:43;;;;;;;24.25;15.60;;;11.90;99.90;;;;;;4991094;28;20073;-88
2021/05/08 02:03:10;;;;;;;28.92;16.67;;;11.90;99.90;;;;;;5008809;28;20022;-90
2021/05/08 02:05:37;;;;;;;22.85;14.30;;;11.90;99.90;;;;;;5003128;28;20026;-88
2021/05/08 02:08:06;;;;;;;22.33;14.50;;;11.90;99.90;;;;;;4997953;28;20510;-90
2021/05/08 02:10:32;;;;;;;20.02;14.00;;;11.90;99.90;;;;;;4998282;28;20113;-88
2021/05/08 02:12:59;;;;;;;19.52;13.60;;;11.90;99.90;;;;;;4998203;28;20034;-88
2021/05/08 02:15:26;;;;;;;15.52;12.30;;;11.90;99.90;;;;;;4998181;28;20032;-89
2021/05/08 02:17:51;;;;;;;17.90;13.00;;;11.90;99.90;;;;;;5016015;28;20088;-90
2021/05/08 02:20:26;;;;;;;19.63;13.00;;;11.90;99.90;;;;;;4997775;28;20022;-90
2021/05/08 02:22:56;;;;;;;18.08;13.05;;;11.90;99.90;;;;;;4997820;28;20049;-89
2021/05/08 02:25:22;;;;;;;16.42;12.18;;;11.90;99.90;;;;;;4997935;28;20037;-90
2021/05/08 02:27:49;;;;;;;16.27;12.43;;;11.90;99.90;;;;;;4998156;28;20030;-89
2021/05/08 02:30:20;;;;;;;17.88;12.60;;;11.90;99.90;;;;;;4998035;28;20383;-88
2021/05/08 02:32:45;;;;;;;20.50;13.63;;;11.90;99.90;;;;;;4997947;28;20062;-89
2021/05/08 02:35:13;;;;;;;17.05;11.90;;;11.90;99.90;;;;;;4997663;28;20026;-89
2021/05/08 02:37:39;;;;;;;18.35;12.00;;;11.90;99.90;;;;;;4997151;28;20034;-88
2021/05/08 02:40:07;;;;;;;18.02;13.02;;;11.90;99.90;;;;;;4997839;28;20116;-89
2021/05/08 02:42:33;;;;;;;17.35;11.88;;;11.90;99.90;;;;;;4997590;28;20045;-89
2021/05/08 02:44:59;;;;;;;21.10;11.55;;;12.00;99.90;;;;;;4997399;28;20025;-90
2021/05/08 02:47:25;;;;;;;15.82;12.02;;;12.00;99.90;;;;;;4997641;28;20029;-90
2021/05/08 02:49:51;;;;;;;16.20;11.55;;;12.00;99.90;;;;;;5014894;28;20030;-90
2021/05/08 02:52:18;;;;;;;17.05;11.23;;;12.00;99.90;;;;;;4997387;28;20041;-88
2021/05/08 02:54:44;;;;;;;16.00;12.05;;;12.00;99.90;;;;;;4997457;28;20022;-90
2021/05/08 02:57:10;;;;;;;16.02;11.70;;;12.00;99.90;;;;;;4997388;28;20068;-89
2021/05/08 02:59:36;;;;;;;14.52;11.60;;;12.00;99.90;;;;;;5014856;28;20018;-88
2021/05/08 03:02:02;;;;;;;16.52;12.27;;;12.00;99.90;;;;;;4997435;28;20045;-89
2021/05/08 03:04:36;;;;;;;19.70;12.93;;;12.00;99.90;;;;;;4997364;28;20022;-89
2021/05/08 03:07:03;;;;;;;23.83;13.48;;;12.00;99.90;;;;;;4997449;28;20378;-90
2021/05/08 03:09:30;;;;;;;21.38;13.55;;;11.90;99.90;;;;;;4997954;28;20044;-90
2021/05/08 03:11:57;;;;;;;19.95;13.18;;;11.90;99.90;;;;;;5013750;28;20398;-90
2021/05/08 03:14:23;;;;;;;19.80;13.68;;;11.90;99.90;;;;;;4997710;28;20026;-89
2021/05/08 03:16:49;;;;;;;22.83;13.70;;;11.90;99.90;;;;;;4997545;28;20423;-89
2021/05/08 03:19:15;;;;;;;20.95;14.43;;;11.80;99.90;;;;;;4997420;28;20071;-90
2021/05/08 03:21:40;;;;;;;26.73;16.08;;;11.90;99.90;;;;;;5014102;28;20018;-89
2021/05/08 03:24:07;;;;;;;20.58;14.00;;;11.80;99.90;;;;;;4996646;28;20056;-88
2021/05/08 03:26:32;;;;;;;19.95;13.10;;;11.90;99.90;;;;;;4993660;28;20053;-89
2021/05/08 03:28:59;;;;;;;20.92;14.77;;;11.90;99.90;;;;;;4997759;28;20022;-89
2021/05/08 03:31:25;;;;;;;27.60;15.43;;;11.90;99.90;;;;;;4993670;28;20137;-89
2021/05/08 03:33:51;;;;;;;18.33;12.88;;;11.90;99.90;;;;;;4995241;28;20029;-88
2021/05/08 03:36:16;;;;;;;19.10;13.20;;;11.90;99.90;;;;;;4998674;28;20018;-88
2021/05/08 03:38:42;;;;;;;21.55;13.57;;;11.90;99.90;;;;;;5000423;28;20541;-88
2021/05/08 03:41:08;;;;;;;18.30;12.32;;;12.00;99.90;;;;;;4989882;28;20021;-89
2021/05/08 03:43:34;;;;;;;16.23;12.88;;;12.00;99.90;;;;;;4986877;28;20069;-89
2021/05/08 03:46:00;;;;;;;21.80;13.13;;;12.00;99.90;;;;;;5003209;28;20034;-89
2021/05/08 03:48:26;;;;;;;16.70;11.68;;;12.00;99.90;;;;;;4991445;28;20169;-90
2021/05/08 03:50:55;;;;;;;16.25;11.88;;;12.00;99.90;;;;;;4998844;28;20022;-89
2021/05/08 03:53:24;;;;;;;15.27;11.77;;;12.00;99.90;;;;;;4988964;28;20034;-89
2021/05/08 03:55:51;;;;;;;15.55;10.93;;;12.00;99.90;;;;;;5003813;28;20030;-90
2021/05/08 03:58:24;;;;;;;16.45;12.05;;;12.00;99.90;;;;;;4992523;28;20036;-90
2021/05/08 04:00:50;;;;;;;17.08;12.38;;;12.00;99.90;;;;;;4989156;28;20073;-90
2021/05/08 04:03:15;;;;;;;19.70;13.23;;;12.00;99.90;;;;;;4976511;28;20473;-89
2021/05/08 04:05:41;;;;;;;15.77;11.60;;;12.00;99.90;;;;;;4975939;28;20072;-89
2021/05/08 04:08:07;;;;;;;17.17;13.13;;;12.00;99.90;;;;;;4992759;28;20057;-89
2021/05/08 04:10:33;;;;;;;18.00;12.70;;;12.00;99.90;;;;;;4978048;28;20420;-89
2021/05/08 04:12:59;;;;;;;20.77;13.43;;;12.00;99.90;;;;;;4990237;28;20494;-89
2021/05/08 04:15:24;;;;;;;17.38;13.98;;;12.00;99.90;;;;;;4990154;28;20213;-90
2021/05/08 04:17:50;;;;;;;17.33;12.68;;;12.00;99.90;;;;;;4989338;28;20038;-89
2021/05/08 04:20:16;;;;;;;15.68;12.13;;;12.00;99.90;;;;;;4988323;28;20029;-88
2021/05/08 04:22:41;;;;;;;20.67;13.85;;;12.00;99.90;;;;;;4987130;28;20085;-89
2021/05/08 04:25:08;;;;;;;21.95;13.57;;;11.90;99.90;;;;;;4989372;28;20062;-91
2021/05/08 04:27:33;;;;;;;23.98;15.60;;;12.00;99.90;;;;;;4985353;28;20121;-90
2021/05/08 04:29:59;;;;;;;22.75;14.85;;;11.90;99.90;;;;;;4987061;28;20507;-91
2021/05/08 04:32:25;;;;;;;25.23;15.20;;;11.90;99.90;;;;;;4989453;28;20038;-92
2021/05/08 04:34:51;;;;;;;22.65;14.45;;;11.80;99.90;;;;;;4989598;28;20026;-92
2021/05/08 04:37:16;;;;;;;22.45;15.43;;;11.80;99.90;;;;;;4988764;28;20054;-89
2021/05/08 04:39:42;;;;;;;26.75;15.32;;;11.80;99.90;;;;;;5004474;28;20475;-89
2021/05/08 04:42:08;;;;;;;26.92;15.00;;;11.70;99.90;;;;;;4985646;28;20030;-91
2021/05/08 04:44:34;;;;;;;32.90;14.35;;;11.70;99.90;;;;;;4989113;28;20117;-91
2021/05/08 04:46:59;;;;;;;25.30;14.35;;;11.80;99.90;;;;;;5003784;28;20049;-91
2021/05/08 04:49:26;;;;;;;28.40;15.15;;;11.80;99.90;;;;;;4985603;28;20050;-90
2021/05/08 04:51:55;;;;;;;24.58;14.45;;;11.80;99.90;;;;;;4989267;28;20428;-90
2021/05/08 04:54:21;;;;;;;28.08;16.52;;;11.80;99.90;;;;;;4989565;28;20014;-90
2021/05/08 04:56:47;;;;;;;20.67;15.50;;;11.80;99.90;;;;;;4986987;28;20096;-91
2021/05/08 04:59:13;;;;;;;28.38;17.67;;;11.80;99.90;;;;;;4988664;28;20101;-91
2021/05/08 05:01:39;;;;;;;26.90;17.40;;;11.80;99.90;;;;;;4989504;28;20080;-91
2021/05/08 05:04:05;;;;;;;27.73;19.00;;;11.80;99.90;;;;;;4987973;28;20030;-91
2021/05/08 05:06:31;;;;;;;31.45;19.63;;;11.70;99.90;;;;;;4999922;28;20628;-90
2021/05/08 05:08:56;;;;;;;26.85;17.42;;;11.70;99.90;;;;;;4994758;28;20037;-90
2021/05/08 05:11:22;;;;;;;32.25;17.38;;;11.70;99.90;;;;;;5016263;28;20028;-89
2021/05/08 05:13:51;;;;;;;26.55;17.13;;;11.70;99.90;;;;;;5015931;28;20060;-91
2021/05/08 05:16:23;;;;;;;27.00;18.33;;;11.70;99.90;;;;;;4990434;28;20022;-90
2021/05/08 05:18:50;;;;;;;28.33;17.58;;;11.70;99.90;;;;;;5006121;28;20031;-90
2021/05/08 05:21:16;;;;;;;27.60;17.42;;;11.70;99.90;;;;;;4992504;28;20022;-92
2021/05/08 05:23:41;;;;;;;27.60;17.17;;;11.80;99.90;;;;;;4990153;28;20089;-90
2021/05/08 05:26:07;;;;;;;24.83;16.55;;;11.80;99.90;;;;;;4997723;28;20022;-90
2021/05/08 05:28:33;;;;;;;27.65;17.70;;;11.80;99.90;;;;;;4989282;28;20034;-91
2021/05/08 05:30:59;;;;;;;22.45;16.45;;;11.80;99.90;;;;;;4988229;28;20112;-89
2021/05/08 05:33:26;;;;;;;24.42;16.98;;;11.80;99.90;;;;;;4992253;28;20031;-91
2021/05/08 05:35:55;;;;;;;19.20;15.20;;;11.80;99.90;;;;;;4994130;28;20022;-91
2021/05/08 05:38:24;;;;;;;23.88;15.95;;;11.80;99.90;;;;;;5005693;28;20031;-91
2021/05/08 05:40:54;;;;;;;19.88;15.02;;;11.80;99.90;;;;;;5008365;28;20030;-89
2021/05/08 05:43:20;;;;;;;23.17;15.98;;;11.80;99.90;;;;;;4980557;28;20042;-91
2021/05/08 05:45:46;;;;;;;21.92;16.80;;;11.80;99.90;;;;;;4990198;28;20025;-91
2021/05/08 05:48:12;;;;;;;19.73;14.85;;;11.80;99.90;;;;;;4990300;28;20035;-90
2021/05/08 05:50:40;;;;;;;22.58;15.70;;;11.80;99.90;;;;;;4989935;28;20017;-89
2021/05/08 05:53:06;;;;;;;19.13;14.38;;;11.80;99.90;;;;;;5010888;28;20072;-89
2021/05/08 05:55:32;;;;;;;19.05;13.85;;;11.90;99.90;;;;;;4995708;28;20029;-88
2021/05/08 05:57:57;;;;;;;19.38;13.05;;;11.90;99.90;;;;;;4985277;28;20121;-88
2021/05/08 06:00:23;;;;;;;16.27;12.60;;;11.90;99.90;;;;;;4993848;28;20026;-90
2021/05/08 06:03:07;;;;;;;18.75;12.98;;;11.90;99.90;;;;;;4998901;28;20037;-91
2021/05/08 06:05:33;;;;;;;20.52;16.95;;;11.90;99.90;;;;;;4993464;28;20029;-90
2021/05/08 06:07:59;;;;;;;19.23;15.10;;;11.90;99.90;;;;;;4993415;28;20050;-89
2021/05/08 06:10:24;;;;;;;21.60;15.60;;;11.90;99.90;;;;;;4994465;28;20109;-89
2021/05/08 06:12:50;;;;;;;18.60;15.23;;;11.90;99.90;;;;;;4993059;28;20379;-89
2021/05/08 06:15:16;;;;;;;18.17;13.98;;;12.00;99.90;;;;;;4989414;28;20075;-89
2021/05/08 06:17:42;;;;;;;15.60;12.80;;;12.00;99.90;;;;;;5001286;28;20034;-89
2021/05/08 06:20:08;;;;;;;14.45;11.60;;;12.10;99.90;;;;;;4997270;28;20029;-88
2021/05/08 06:22:34;;;;;;;14.63;10.60;;;12.20;99.90;;;;;;5034409;28;20068;-88
2021/05/08 06:25:00;;;;;;;11.57;9.13;;;12.20;99.90;;;;;;5009247;28;20085;-88
2021/05/08 06:27:26;;;;;;;11.95;9.13;;;12.20;99.90;;;;;;4997262;28;20034;-89
2021/05/08 06:29:52;;;;;;;11.55;8.63;;;12.30;99.90;;;;;;4986978;28;20041;-89
2021/05/08 06:32:17;;;;;;;11.98;8.32;;;12.30;99.90;;;;;;4987423;28;20665;-90
2021/05/08 06:34:43;;;;;;;10.18;8.18;;;12.30;99.90;;;;;;5004381;28;20023;-89
2021/05/08 06:37:09;;;;;;;12.43;9.15;;;12.40;99.90;;;;;;4998287;28;20033;-90
2021/05/08 06:39:35;;;;;;;12.13;9.43;;;12.40;99.90;;;;;;4997576;28;20104;-90
2021/05/08 06:42:00;;;;;;;11.07;9.45;;;12.50;99.90;;;;;;4998481;28;20040;-90
2021/05/08 06:44:27;;;;;;;10.02;8.23;;;12.50;99.90;;;;;;4996557;28;20049;-89
2021/05/08 06:46:53;;;;;;;10.90;9.15;;;12.60;99.90;;;;;;4998024;28;20041;-90
2021/05/08 06:49:19;;;;;;;11.07;9.55;;;12.60;99.90;;;;;;4991945;28;20356;-90
2021/05/08 06:51:46;;;;;;;11.85;10.13;;;12.60;99.90;;;;;;4990943;28;20510;-91
2021/05/08 06:54:12;;;;;;;12.02;10.18;;;12.60;99.90;;;;;;5006479;28;20040;-90
2021/05/08 06:56:38;;;;;;;12.65;9.73;;;12.60;99.90;;;;;;5004710;28;20020;-91
2021/05/08 06:59:03;;;;;;;12.68;9.82;;;12.60;99.90;;;;;;5014437;28;20038;-91
2021/05/08 07:01:29;;;;;;;10.85;8.70;;;12.70;99.90;;;;;;4989296;28;20104;-91
2021/05/08 07:03:56;;;;;;;13.20;9.88;;;12.70;99.90;;;;;;5009312;28;20182;-92
2021/05/08 07:06:35;;;;;;;15.65;10.43;;;12.70;99.90;;;;;;5000685;28;20041;-91
2021/05/08 07:09:00;;;;;;;12.38;9.30;;;12.70;99.90;;;;;;4987164;28;20301;-91
2021/05/08 07:11:26;;;;;;;15.93;10.77;;;12.60;99.90;;;;;;4999263;28;20053;-89
2021/05/08 07:13:52;;;;;;;11.93;9.73;;;12.60;99.90;;;;;;4991250;28;20464;-90
2021/05/08 07:16:18;;;;;;;13.80;11.00;;;12.50;99.90;;;;;;4995845;28;20029;-91
2021/05/08 07:18:44;;;;;;;15.05;12.32;;;12.50;99.90;;;;;;5007934;28;20026;-90
2021/05/08 07:21:10;;;;;;;20.23;15.70;;;12.50;99.90;;;;;;5000626;28;20372;-90
2021/05/08 07:23:35;;;;;;;24.17;18.67;;;12.50;99.90;;;;;;4995468;28;20042;-90
2021/05/08 07:26:01;;;;;;;25.77;20.33;;;12.50;99.90;;;;;;4996382;28;20091;-89
2021/05/08 07:28:27;;;;;;;26.35;20.33;;;12.50;99.90;;;;;;5006706;28;20041;-91
2021/05/08 07:30:55;;;;;;;28.10;21.48;;;12.50;99.90;;;;;;4996518;28;20049;-90
2021/05/08 07:33:22;;;;;;;21.33;16.85;;;12.50;99.90;;;;;;4996368;28;20521;-89
2021/05/08 07:35:49;;;;;;;15.63;13.50;;;12.60;99.90;;;;;;5009767;28;20209;-90
2021/05/08 07:38:16;;;;;;;17.30;13.55;;;12.60;99.90;;;;;;5028873;28;20021;-90
2021/05/08 07:40:42;;;;;;;15.30;12.50;;;12.60;99.90;;;;;;5013529;28;20030;-90
2021/05/08 07:43:09;;;;;;;13.48;11.02;;;12.60;99.90;;;;;;4991915;28;20038;-91
2021/05/08 07:45:35;;;;;;;14.32;11.30;;;12.50;99.90;;;;;;4998432;28;20022;-91
2021/05/08 07:48:01;;;;;;;15.20;11.00;;;12.50;99.90;;;;;;5013106;28;20383;-90
2021/05/08 07:50:28;;;;;;;12.80;10.98;;;12.50;99.90;;;;;;4988839;28;20018;-91
2021/05/08 07:52:54;;;;;;;13.13;11.20;;;12.50;99.90;;;;;;5002477;28;20129;-91
2021/05/08 07:55:20;;;;;;;14.40;11.52;;;12.50;99.90;;;;;;4996060;28;20022;-92
2021/05/08 07:57:47;;;;;;;13.70;11.43;;;12.50;99.90;;;;;;4987712;28;20121;-91
2021/05/08 08:00:14;;;;;;;13.77;11.13;;;12.60;99.90;;;;;;4983014;28;20139;-91
2021/05/08 08:02:40;;;;;;;13.68;11.27;;;12.60;99.90;;;;;;4995034;28;20033;-91
2021/05/08 08:05:07;;;;;;;13.45;11.38;;;12.60;99.90;;;;;;4996064;28;20463;-91
2021/05/08 08:07:33;;;;;;;14.90;12.00;;;12.70;99.90;;;;;;4982056;28;20037;-90
2021/05/08 08:09:59;;;;;;;14.43;11.57;;;12.70;99.90;;;;;;4988060;28;20030;-90
2021/05/08 08:12:25;;;;;;;15.95;12.43;;;12.70;99.90;;;;;;4986220;28;20042;-90
2021/05/08 08:14:51;;;;;;;15.63;12.07;;;12.70;99.90;;;;;;4986478;28;20026;-89
2021/05/08 08:17:18;;;;;;;18.58;13.98;;;12.80;99.90;;;;;;4996042;28;20028;-90
2021/05/08 08:19:48;;;;;;;16.33;13.60;;;12.80;99.90;;;;;;4989183;28;20094;-90
2021/05/08 08:22:17;;;;;;;16.85;14.32;;;12.90;99.90;;;;;;4992553;28;20041;-89
2021/05/08 08:24:43;;;;;;;19.65;14.20;;;13.00;99.90;;;;;;4989858;28;20042;-89
2021/05/08 08:27:10;;;;;;;18.35;14.65;;;13.10;99.90;;;;;;4991665;28;20609;-90
2021/05/08 08:29:36;;;;;;;18.38;14.73;;;13.20;99.90;;;;;;5008742;28;20108;-90
2021/05/08 08:32:02;;;;;;;20.13;16.27;;;13.20;99.90;;;;;;4992671;28;20036;-89
2021/05/08 08:34:28;;;;;;;20.85;16.85;;;13.30;99.90;;;;;;4990749;28;20033;-89
2021/05/08 08:36:54;;;;;;;20.27;15.95;;;13.50;99.90;;;;;;4990159;28;20041;-89
2021/05/08 08:39:20;;;;;;;19.80;16.17;;;13.60;99.90;;;;;;4992864;28;20089;-90
2021/05/08 08:41:45;;;;;;;19.98;15.88;;;13.60;99.90;;;;;;4994075;28;20514;-89
2021/05/08 08:44:11;;;;;;;18.45;15.63;;;13.60;99.90;;;;;;4988169;28;20042;-87
2021/05/08 08:46:42;;;;;;;18.23;16.23;;;13.60;99.90;;;;;;5001149;28;20018;-90
2021/05/08 08:49:08;;;;;;;22.05;17.98;;;13.60;99.90;;;;;;5026015;28;20057;-89
2021/05/08 08:51:34;;;;;;;20.98;17.83;;;13.90;99.90;;;;;;5025213;28;20105;-89
2021/05/08 08:54:00;;;;;;;25.30;19.40;;;14.20;99.90;;;;;;5009089;28;20030;-90
2021/05/08 08:56:33;;;;;;;21.40;17.92;;;14.40;99.90;;;;;;4997658;28;20098;-91
2021/05/08 08:59:03;;;;;;;18.52;15.65;;;14.70;99.90;;;;;;4982010;28;20037;-88
2021/05/08 09:01:30;;;;;;;18.55;16.48;;;14.80;99.90;;;;;;4993115;28;20025;-90
2021/05/08 09:03:56;;;;;;;17.70;15.55;;;14.70;99.90;;;;;;4983235;28;20038;-89
2021/05/08 09:06:23;;;;;;;16.92;14.55;;;14.50;99.90;;;;;;4991472;28;20036;-90
2021/05/08 09:08:52;;;;;;;18.33;16.35;;;14.30;99.90;;;;;;5011549;28;20472;-89
2021/05/08 09:11:23;;;;;;;16.55;13.43;;;14.10;99.90;;;;;;4992450;28;20027;-91
2021/05/08 09:14:16;;;;;;;12.75;11.20;;;13.90;99.90;;;;;;4993194;28;20039;-92
2021/05/08 09:17:01;;;;;;;10.75;9.57;;;13.80;99.90;;;;;;4990632;28;20022;-91
2021/05/08 09:19:27;;;;;;;10.63;9.52;;;13.80;99.90;;;;;;4986542;28;20034;-92
2021/05/08 09:21:52;;;;;;;11.55;9.65;;;13.90;99.90;;;;;;4988612;28;20049;-91
2021/05/08 09:24:18;;;;;;;10.25;9.25;;;13.90;99.90;;;;;;4987522;28;20041;-90
2021/05/08 09:26:48;;;;;;;10.07;9.10;;;13.90;99.90;;;;;;5002891;28;20022;-91
2021/05/08 09:29:20;;;;;;;8.63;7.72;;;13.90;99.90;;;;;;4988303;28;20033;-91
2021/05/08 09:32:00;;;;;;;8.75;7.85;;;13.80;99.90;;;;;;4989276;28;20046;-92
2021/05/08 09:34:29;;;;;;;9.48;7.75;;;13.80;99.90;;;;;;4991310;28;20033;-90
2021/05/08 09:36:56;;;;;;;7.90;7.10;;;13.70;99.90;;;;;;4998712;28;20471;-90
2021/05/08 09:39:32;;;;;;;8.73;7.93;;;13.80;99.90;;;;;;4999022;28;20500;-91
2021/05/08 09:42:00;;;;;;;10.07;9.18;;;14.10;99.90;;;;;;4985337;28;20098;-88
2021/05/08 09:44:25;;;;;;;8.82;7.10;;;14.90;99.90;;;;;;4982640;28;20030;-90
2021/05/08 09:46:52;;;;;;;6.90;6.20;;;15.50;99.90;;;;;;4989070;28;20088;-87
2021/05/08 09:49:21;;;;;;;6.00;5.50;;;15.50;99.90;;;;;;4996777;28;20021;-87
2021/05/08 09:52:00;;;;;;;6.35;5.75;;;15.30;99.90;;;;;;4991589;28;20136;-89
2021/05/08 09:54:26;;;;;;;6.72;5.93;;;15.10;99.90;;;;;;4991945;28;20038;-87
2021/05/08 09:56:52;;;;;;;7.55;6.05;;;14.70;99.90;;;;;;4990916;28;20045;-89
2021/05/08 09:59:35;;;;;;;7.63;6.93;;;14.20;99.90;;;;;;5009106;28;20033;-88
2021/05/08 10:02:06;;;;;;;8.55;7.40;;;13.80;99.90;;;;;;5012751;28;20046;-89
2021/05/08 10:04:36;;;;;;;8.05;7.25;;;13.20;99.90;;;;;;4999368;28;20470;-89
2021/05/08 10:07:13;;;;;;;8.48;7.68;;;12.80;99.90;;;;;;5003504;28;20490;-88
2021/05/08 10:09:41;;;;;;;8.13;7.32;;;12.50;99.90;;;;;;5015342;28;20510;-88
2021/05/08 10:12:09;;;;;;;9.60;8.63;;;12.30;99.90;;;;;;5011217;28;20375;-88
2021/05/08 10:14:43;;;;;;;11.80;8.93;;;12.20;99.90;;;;;;4989144;28;20041;-88
2021/05/08 10:17:12;;;;;;;9.23;8.32;;;12.20;99.90;;;;;;5010140;28;20068;-88
2021/05/08 10:19:39;;;;;;;11.10;9.55;;;12.40;99.90;;;;;;5005091;28;20085;-88
2021/05/08 10:22:10;;;;;;;11.30;9.13;;;12.70;99.90;;;;;;5004506;28;20080;-87
2021/05/08 10:24:39;;;;;;;11.50;9.45;;;12.90;99.90;;;;;;4988769;28;20068;-89
2021/05/08 10:27:05;;;;;;;12.60;8.80;;;13.00;99.90;;;;;;4989104;28;20040;-88
2021/05/08 10:29:36;;;;;;;10.02;9.02;;;12.90;99.90;;;;;;4997191;28;20022;-87
2021/05/08 10:32:04;;;;;;;10.13;8.25;;;12.90;99.90;;;;;;4992972;28;20535;-87
2021/05/08 10:34:34;;;;;;;9.57;8.25;;;12.70;99.90;;;;;;4998940;28;20030;-89
2021/05/08 10:37:13;;;;;;;8.60;7.47;;;12.60;99.90;;;;;;4991577;28;20034;-87
2021/05/08 10:40:19;;;;;;;8.35;7.47;;;12.50;99.90;;;;;;4991993;28;20558;-89
2021/05/08 10:42:47;;;;;;;7.60;6.90;;;12.50;99.90;;;;;;5002554;28;20069;-86
2021/05/08 10:45:19;;;;;;;6.05;5.45;;;12.60;99.90;;;;;;4985382;28;20030;-88
2021/05/08 10:47:58;;;;;;;6.47;5.60;;;12.70;99.90;;;;;;4983761;28;20034;-89
2021/05/08 10:50:47;;;;;;;5.47;4.97;;;12.60;99.90;;;;;;4986656;28;20014;-90
2021/05/08 10:53:14;;;;;;;5.43;4.20;;;12.60;99.90;;;;;;4992745;28;20046;-89
2021/05/08 10:55:57;;;;;;;4.82;4.30;;;12.60;99.90;;;;;;4986290;28;20057;-88
2021/05/08 10:58:22;;;;;;;4.50;4.10;;;12.50;99.90;;;;;;5000122;28;20128;-88
2021/05/08 11:00:52;;;;;;;4.18;3.78;;;12.40;99.90;;;;;;4992216;28;20049;-88
2021/05/08 11:03:19;;;;;;;4.53;4.10;;;12.30;99.90;;;;;;4987962;28;20453;-90
2021/05/08 11:06:13;;;;;;;3.85;3.55;;;12.30;99.90;;;;;;4996828;28;20498;-88
2021/05/08 11:08:38;;;;;;;3.50;3.20;;;12.20;99.90;;;;;;5017201;28;20022;-88
2021/05/08 11:11:16;;;;;;;3.60;3.30;;;12.20;99.90;;;;;;5006008;28;20375;-88
2021/05/08 11:13:44;;;;;;;4.60;3.50;;;12.20;99.90;;;;;;4991755;28;20038;-88
2021/05/08 11:16:24;;;;;;;3.80;3.50;;;12.30;99.90;;;;;;4993251;28;20064;-88
2021/05/08 11:18:53;;;;;;;3.90;3.60;;;12.70;99.90;;;;;;4987229;28;20042;-88
2021/05/08 11:21:19;;;;;;;4.45;4.05;;;13.20;99.90;;;;;;4992203;28;20026;-89
2021/05/08 11:24:01;;;;;;;4.45;4.00;;;13.70;99.90;;;;;;4989322;28;20045;-89
2021/05/08 11:26:30;;;;;;;4.18;3.78;;;14.00;99.90;;;;;;4983346;28;20033;-88
2021/05/08 11:28:57;;;;;;;3.88;3.58;;;14.30;99.90;;;;;;4997931;28;20034;-87
2021/05/08 11:31:26;;;;;;;3.90;3.55;;;14.50;99.90;;;;;;5000856;28;20033;-90
2021/05/08 11:33:52;;;;;;;3.97;3.67;;;14.70;99.90;;;;;;4988228;28;20121;-90
2021/05/08 11:36:18;;;;;;;4.28;3.00;;;14.90;99.90;;;;;;4988004;28;20157;-89
2021/05/08 11:38:44;;;;;;;3.30;2.70;;;14.80;99.90;;;;;;4992150;28;20037;-88
2021/05/08 11:41:24;;;;;;;2.70;2.50;;;14.70;99.90;;;;;;4983283;28;20026;-87
2021/05/08 11:43:54;;;;;;;3.50;2.60;;;14.60;99.90;;;;;;4985106;28;20129;-88
2021/05/08 11:46:22;;;;;;;3.10;2.80;;;14.30;99.90;;;;;;4991560;28;20113;-87
2021/05/08 11:48:51;;;;;;;2.80;2.60;;;14.10;99.90;;;;;;4991641;28;20093;-86
2021/05/08 11:51:17;;;;;;;3.10;2.80;;;13.90;99.90;;;;;;4987991;28;20022;-89
2021/05/08 11:53:43;;;;;;;2.97;2.65;;;13.80;99.90;;;;;;4993002;28;20034;-88
2021/05/08 11:56:09;;;;;;;3.30;2.58;;;13.70;99.90;;;;;;4988898;28;20025;-87
2021/05/08 11:58:35;;;;;;;2.78;2.58;;;13.70;99.90;;;;;;5013834;28;20049;-89
2021/05/08 12:01:00;;;;;;;2.65;2.45;;;13.60;99.90;;;;;;4989379;28;20116;-87
2021/05/08 12:03:28;;;;;;;3.90;2.90;;;13.60;99.90;;;;;;5007589;28;20472;-86
